Terminal Aerodrome Forecast
Issued by NWS North Platte, NE

Home | Current Version | Previous Version | Text Only | Print | Product List | Glossary On
Versions: 1 2 3 4 5 6 7 8 9 10 11 12 13 14 15 16 17 18 19
000
FTUS43 KLBF 251700 RRA
TAFVTN
TAF
KVTN 251741Z 2518/2618 35014KT P6SM SKC
     FM260000 06006KT P6SM BKN150 BKN250
     FM261200 34006KT P6SM BKN050=

USA.gov is the U.S. government's official web portal to all federal, state and local government web resources and services.